Time;durP1;ratioP1;P1;durP2;ratioP2;P2;SDS_P1;SDS_P2;PMS_P1;PMS_P2;Temp;Humidity;BMP_temperature;BMP_pressure;BME280_temperature;BME280_humidity;BME280_pressure;Samples;Min_cycle;Max_cycle;Signal;HPM_P1;HPM_P2
2021/06/29 00:02:09;;;;;;;11.80;10.38;;;21.80;99.90;;;;;;5101163;28;20111;-45
2021/06/29 00:04:35;;;;;;;12.93;11.45;;;21.80;99.90;;;;;;5093827;28;20032;-43
2021/06/29 00:07:00;;;;;;;12.30;11.00;;;21.80;99.90;;;;;;5096607;28;20034;-44
2021/06/29 00:09:26;;;;;;;12.32;11.10;;;21.80;99.90;;;;;;5103662;28;20031;-44
2021/06/29 00:11:52;;;;;;;12.45;11.20;;;21.70;99.90;;;;;;5099196;28;20028;-45
2021/06/29 00:14:17;;;;;;;13.20;11.80;;;21.70;99.90;;;;;;5104301;28;20069;-43
2021/06/29 00:16:43;;;;;;;15.85;12.43;;;21.60;99.90;;;;;;5101702;28;20030;-43
2021/06/29 00:19:09;;;;;;;13.43;12.02;;;21.60;99.90;;;;;;5100187;28;20386;-43
2021/06/29 00:21:34;;;;;;;12.80;11.43;;;21.60;99.90;;;;;;5102144;28;20027;-44
2021/06/29 00:24:00;;;;;;;14.50;12.55;;;21.60;99.90;;;;;;5097485;28;20168;-44
2021/06/29 00:26:25;;;;;;;14.63;13.10;;;21.60;99.90;;;;;;5104147;28;20030;-43
2021/06/29 00:28:51;;;;;;;14.65;12.30;;;21.50;99.90;;;;;;5102593;28;20024;-44
2021/06/29 00:31:16;;;;;;;13.80;12.25;;;21.50;99.90;;;;;;5098755;28;20106;-43
2021/06/29 00:33:42;;;;;;;13.65;12.25;;;21.50;99.90;;;;;;5089455;28;20315;-44
2021/06/29 00:36:10;;;;;;;14.20;12.77;;;21.40;99.90;;;;;;5103926;28;20421;-44
2021/06/29 00:38:35;;;;;;;14.18;12.77;;;21.30;99.90;;;;;;5096039;28;20102;-46
2021/06/29 00:41:02;;;;;;;15.40;13.05;;;21.30;99.90;;;;;;5100347;28;20498;-44
2021/06/29 00:43:27;;;;;;;14.25;12.80;;;21.20;99.90;;;;;;5102079;28;20414;-44
2021/06/29 00:45:53;;;;;;;14.10;12.70;;;21.20;99.90;;;;;;5099869;28;20111;-44
2021/06/29 00:48:19;;;;;;;13.52;12.07;;;21.30;99.90;;;;;;5101549;28;20059;-44
2021/06/29 00:50:45;;;;;;;13.65;12.25;;;21.30;99.90;;;;;;5101252;28;20421;-44
2021/06/29 00:53:11;;;;;;;13.65;12.20;;;21.20;99.90;;;;;;5099918;28;20557;-45
2021/06/29 00:55:38;;;;;;;15.55;12.68;;;21.10;99.90;;;;;;5101756;28;20012;-44
2021/06/29 00:58:13;;;;;;;15.15;12.52;;;21.10;99.90;;;;;;5100906;28;20084;-46
2021/06/29 01:00:41;;;;;;;14.50;11.77;;;21.10;99.90;;;;;;5099665;28;20489;-44
2021/06/29 01:03:07;;;;;;;13.50;12.10;;;21.10;99.90;;;;;;5093321;28;20024;-43
2021/06/29 01:05:33;;;;;;;12.63;11.38;;;21.10;99.90;;;;;;5105478;28;20027;-44
2021/06/29 01:07:59;;;;;;;12.40;11.10;;;21.00;99.90;;;;;;5098268;28;20031;-44
2021/06/29 01:10:25;;;;;;;12.80;11.50;;;20.90;99.90;;;;;;5105888;28;20059;-43
2021/06/29 01:12:50;;;;;;;13.43;12.02;;;20.90;99.90;;;;;;5101360;28;20070;-46
2021/06/29 01:15:23;;;;;;;12.68;11.38;;;20.80;99.90;;;;;;5090322;28;20023;-45
2021/06/29 01:17:53;;;;;;;12.50;11.25;;;20.80;99.90;;;;;;5104770;28;20485;-44
2021/06/29 01:20:24;;;;;;;12.18;11.00;;;20.80;99.90;;;;;;5098328;28;20027;-47
2021/06/29 01:22:52;;;;;;;;;;;20.70;99.90;;;;;;5101340;28;20028;-43
2021/06/29 01:25:18;;;;;;;12.15;10.95;;;20.70;99.90;;;;;;5099942;28;19930;-45
2021/06/29 01:32:38;;;;;;;14.68;11.95;;;20.60;99.90;;;;;;5100918;27;20035;-45
2021/06/29 01:35:06;;;;;;;12.35;11.15;;;20.60;99.90;;;;;;5099762;28;20027;-46
2021/06/29 01:37:32;;;;;;;14.43;11.95;;;20.50;99.90;;;;;;5094241;28;20024;-44
2021/06/29 01:40:06;;;;;;;13.18;11.90;;;20.50;99.90;;;;;;5101608;28;20015;-45
2021/06/29 01:42:32;;;;;;;13.68;12.27;;;20.50;99.90;;;;;;5097257;28;20123;-46
2021/06/29 01:44:58;;;;;;;13.90;12.50;;;20.40;99.90;;;;;;5097311;28;20102;-50
2021/06/29 01:47:27;;;;;;;13.02;11.82;;;20.40;99.90;;;;;;5107170;28;20049;-47
2021/06/29 01:49:53;;;;;;;14.50;13.00;;;20.40;99.90;;;;;;5096926;28;20054;-44
2021/06/29 01:52:19;;;;;;;14.32;12.35;;;20.40;99.90;;;;;;5104358;28;20047;-44
2021/06/29 01:54:44;;;;;;;12.82;11.43;;;20.40;99.90;;;;;;5097187;28;20016;-44
2021/06/29 01:57:18;;;;;;;13.35;11.95;;;20.40;99.90;;;;;;5102668;28;20019;-44
2021/06/29 01:59:46;;;;;;;13.63;12.23;;;20.30;99.90;;;;;;5099980;28;20051;-43
2021/06/29 02:02:12;;;;;;;14.10;12.27;;;20.40;99.90;;;;;;5099280;28;20073;-44
2021/06/29 02:04:38;;;;;;;14.18;10.52;;;20.40;99.90;;;;;;5101055;28;20028;-43
2021/06/29 02:07:04;;;;;;;13.38;9.15;;;20.50;99.90;;;;;;5098179;28;20031;-43
2021/06/29 02:09:29;;;;;;;16.35;9.90;;;20.50;99.90;;;;;;5102407;28;20024;-43
2021/06/29 02:11:54;;;;;;;10.27;9.18;;;20.50;99.90;;;;;;5096675;28;20472;-44
2021/06/29 02:14:20;;;;;;;11.43;8.40;;;20.40;99.90;;;;;;5101788;28;20020;-44
2021/06/29 02:16:45;;;;;;;13.63;8.70;;;20.40;99.90;;;;;;5100768;28;20470;-45
2021/06/29 02:19:11;;;;;;;12.40;7.55;;;20.30;99.90;;;;;;5098167;28;20028;-44
2021/06/29 02:21:37;;;;;;;10.15;6.80;;;20.40;99.90;;;;;;5100802;28;20020;-44
2021/06/29 02:24:03;;;;;;;8.80;6.05;;;20.40;99.90;;;;;;5097686;28;20024;-44
2021/06/29 02:26:28;;;;;;;7.18;6.45;;;20.40;99.90;;;;;;5103256;28;20023;-45
2021/06/29 02:28:54;;;;;;;9.25;5.40;;;20.40;99.90;;;;;;5090943;28;20021;-43
2021/06/29 02:31:20;;;;;;;5.72;5.13;;;20.50;99.90;;;;;;5106885;28;20023;-44
2021/06/29 02:33:45;;;;;;;12.05;6.28;;;20.50;99.90;;;;;;5098635;28;20162;-44
2021/06/29 02:36:11;;;;;;;6.20;5.60;;;20.50;99.90;;;;;;5098755;28;20469;-44
2021/06/29 02:38:36;;;;;;;9.95;6.00;;;20.50;99.90;;;;;;5092804;28;20020;-44
2021/06/29 02:41:03;;;;;;;6.50;5.22;;;20.50;99.90;;;;;;5098960;28;20095;-44
2021/06/29 02:43:29;;;;;;;8.55;5.63;;;20.60;99.90;;;;;;5100150;28;20094;-44
2021/06/29 02:45:54;;;;;;;9.00;5.28;;;20.50;99.90;;;;;;5096548;28;20019;-45
2021/06/29 02:48:20;;;;;;;6.60;5.10;;;20.60;99.90;;;;;;5099757;28;20098;-44
2021/06/29 02:50:45;;;;;;;6.53;5.00;;;20.60;99.90;;;;;;5099273;28;20273;-44
2021/06/29 02:53:11;;;;;;;9.20;5.28;;;20.60;99.90;;;;;;5096880;28;20031;-44
2021/06/29 02:55:36;;;;;;;6.55;5.40;;;20.50;99.90;;;;;;5100138;28;20019;-44
2021/06/29 02:58:02;;;;;;;7.65;5.35;;;20.50;99.90;;;;;;5099318;28;20482;-46
2021/06/29 03:00:28;;;;;;;9.27;5.70;;;20.50;99.90;;;;;;5092235;28;20165;-43
2021/06/29 03:02:53;;;;;;;5.85;5.07;;;20.60;99.90;;;;;;5098710;28;20028;-44
2021/06/29 03:05:19;;;;;;;6.45;5.30;;;20.60;99.90;;;;;;5099966;28;20098;-43
2021/06/29 03:07:44;;;;;;;9.27;4.80;;;20.60;99.90;;;;;;5098491;28;20107;-44
2021/06/29 03:10:11;;;;;;;10.48;6.18;;;20.60;99.90;;;;;;5097724;28;20028;-44
2021/06/29 03:12:36;;;;;;;10.25;5.15;;;20.50;99.90;;;;;;5099695;28;20036;-44
2021/06/29 03:15:04;;;;;;;8.60;5.05;;;20.50;99.90;;;;;;5098812;28;20021;-44
2021/06/29 03:17:30;;;;;;;8.32;4.55;;;20.50;99.90;;;;;;5099205;28;20514;-44
2021/06/29 03:19:56;;;;;;;7.40;4.82;;;20.40;99.90;;;;;;5097619;28;20226;-44
2021/06/29 03:22:22;;;;;;;8.23;4.80;;;20.40;99.90;;;;;;5098012;28;20016;-45
2021/06/29 03:24:48;;;;;;;5.53;4.45;;;20.40;99.90;;;;;;5099709;28;20020;-44
2021/06/29 03:27:14;;;;;;;11.25;4.38;;;20.50;99.90;;;;;;5097942;28;20057;-44
2021/06/29 03:29:40;;;;;;;7.70;3.88;;;20.40;99.90;;;;;;5092121;28;20019;-44
2021/06/29 03:32:08;;;;;;;5.57;3.60;;;20.50;99.90;;;;;;5108578;28;20080;-46
2021/06/29 03:34:33;;;;;;;8.02;3.58;;;20.40;99.90;;;;;;5103870;28;20030;-45
2021/06/29 03:37:02;;;;;;;5.93;2.90;;;20.40;99.90;;;;;;5101012;28;20015;-44
2021/06/29 03:39:30;;;;;;;5.05;3.15;;;20.50;99.90;;;;;;5097941;28;20068;-44
2021/06/29 03:41:55;;;;;;;4.25;3.15;;;20.40;99.90;;;;;;5102724;28;20031;-44
2021/06/29 03:44:21;;;;;;;5.05;2.92;;;20.40;99.90;;;;;;5101905;28;20024;-44
2021/06/29 03:46:47;;;;;;;5.15;3.03;;;20.40;99.90;;;;;;5104615;28;20045;-44
2021/06/29 03:49:13;;;;;;;4.10;3.03;;;20.30;99.90;;;;;;5099933;28;20051;-44
2021/06/29 03:51:38;;;;;;;3.25;2.88;;;20.20;99.90;;;;;;5104097;28;20119;-45
2021/06/29 03:54:05;;;;;;;3.70;3.40;;;20.20;99.90;;;;;;5101909;28;20580;-47
2021/06/29 03:56:31;;;;;;;3.83;3.15;;;20.20;99.90;;;;;;5103255;28;20027;-44
2021/06/29 03:59:00;;;;;;;5.20;3.38;;;20.20;99.90;;;;;;5090625;28;20027;-44
2021/06/29 04:01:26;;;;;;;3.90;2.95;;;20.30;99.90;;;;;;5084143;28;20367;-44
2021/06/29 04:03:55;;;;;;;6.13;3.78;;;20.20;99.90;;;;;;5076101;28;20025;-44
2021/06/29 04:06:27;;;;;;;3.90;3.33;;;20.20;99.90;;;;;;5078471;28;20019;-43
2021/06/29 04:08:54;;;;;;;3.83;3.22;;;20.20;99.90;;;;;;5084395;28;20061;-43
2021/06/29 04:11:21;;;;;;;4.18;3.28;;;20.20;99.90;;;;;;5082990;28;20051;-45
2021/06/29 04:13:47;;;;;;;5.20;3.40;;;20.30;99.90;;;;;;5097374;28;20047;-44
2021/06/29 04:16:12;;;;;;;7.13;4.07;;;20.30;99.90;;;;;;5091967;28;20017;-45
2021/06/29 04:18:38;;;;;;;5.88;3.25;;;20.30;99.90;;;;;;5073965;28;20047;-44
2021/06/29 04:21:04;;;;;;;4.75;3.20;;;20.30;99.90;;;;;;5092340;28;20243;-44
2021/06/29 04:23:29;;;;;;;7.38;3.63;;;20.40;99.90;;;;;;5079505;28;20026;-45
2021/06/29 04:25:55;;;;;;;5.72;3.53;;;20.40;99.90;;;;;;5094296;28;20028;-44
2021/06/29 04:28:21;;;;;;;7.32;3.55;;;20.40;99.90;;;;;;5084543;28;20421;-44
2021/06/29 04:30:46;;;;;;;4.80;3.78;;;20.50;99.90;;;;;;5073420;28;20024;-43
2021/06/29 04:33:12;;;;;;;6.32;3.63;;;20.50;99.90;;;;;;5072782;28;20090;-43
2021/06/29 04:35:37;;;;;;;5.03;3.58;;;20.40;99.90;;;;;;5070481;28;20039;-44
2021/06/29 04:38:03;;;;;;;6.05;3.60;;;20.50;99.90;;;;;;5072354;28;20492;-44
2021/06/29 04:40:28;;;;;;;7.07;3.42;;;20.50;99.90;;;;;;5076540;28;20019;-44
2021/06/29 04:42:54;;;;;;;4.88;3.50;;;20.50;99.90;;;;;;5077215;28;20036;-44
2021/06/29 04:45:20;;;;;;;8.43;3.83;;;20.40;99.90;;;;;;5075533;28;20035;-44
2021/06/29 04:47:48;;;;;;;4.22;3.42;;;20.30;99.90;;;;;;5075044;28;20390;-49
2021/06/29 04:50:17;;;;;;;5.53;3.55;;;20.30;99.90;;;;;;5076778;28;20024;-44
2021/06/29 04:52:43;;;;;;;4.60;3.13;;;20.30;99.90;;;;;;5074808;28;20020;-44
2021/06/29 04:55:09;;;;;;;6.60;3.47;;;20.30;99.90;;;;;;5078012;28;20021;-44
2021/06/29 04:57:35;;;;;;;5.03;3.33;;;20.30;99.90;;;;;;5075509;28;20386;-44
2021/06/29 05:00:06;;;;;;;3.90;3.55;;;20.30;99.90;;;;;;5078801;28;20032;-44
2021/06/29 05:02:33;;;;;;;5.85;2.92;;;20.30;99.90;;;;;;5072183;28;20028;-46
2021/06/29 05:04:59;;;;;;;5.82;3.60;;;20.30;99.90;;;;;;5075401;28;20028;-43
2021/06/29 05:07:24;;;;;;;7.28;3.40;;;20.20;99.90;;;;;;5085201;28;20492;-43
2021/06/29 05:09:50;;;;;;;9.88;4.80;;;20.30;99.90;;;;;;5075996;28;20099;-45
2021/06/29 05:12:15;;;;;;;4.78;3.90;;;20.20;99.90;;;;;;5079377;28;20031;-46
2021/06/29 05:14:41;;;;;;;5.03;3.83;;;20.00;99.90;;;;;;5080717;28;20107;-44
2021/06/29 05:17:06;;;;;;;4.35;3.30;;;20.00;99.90;;;;;;5085124;28;20499;-44
2021/06/29 05:19:32;;;;;;;5.22;4.03;;;20.00;99.90;;;;;;5073388;28;20040;-44
2021/06/29 05:21:58;;;;;;;6.55;3.83;;;20.10;99.90;;;;;;5079800;28;20028;-44
2021/06/29 05:24:23;;;;;;;4.20;3.80;;;20.20;99.90;;;;;;5082641;28;20104;-43
2021/06/29 05:26:50;;;;;;;6.18;3.53;;;20.30;99.90;;;;;;5078251;28;20105;-44
2021/06/29 05:29:15;;;;;;;7.10;3.83;;;20.30;99.90;;;;;;5078340;28;20523;-44
2021/06/29 05:31:41;;;;;;;4.72;3.45;;;20.40;99.90;;;;;;5084401;28;20027;-45
2021/06/29 05:34:07;;;;;;;5.13;3.75;;;20.30;99.90;;;;;;5082338;28;20423;-44
2021/06/29 05:36:32;;;;;;;6.05;4.10;;;20.30;99.90;;;;;;5075741;28;20024;-44
2021/06/29 05:38:58;;;;;;;4.95;3.67;;;20.30;99.90;;;;;;5080696;28;20025;-44
2021/06/29 05:41:23;;;;;;;7.53;4.10;;;20.30;99.90;;;;;;5082724;28;20047;-45
2021/06/29 05:43:49;;;;;;;3.80;3.50;;;20.40;99.90;;;;;;5081332;28;20024;-44
2021/06/29 05:46:15;;;;;;;3.90;3.47;;;20.40;99.90;;;;;;5079627;28;20039;-43
2021/06/29 05:48:41;;;;;;;5.10;3.88;;;20.40;99.90;;;;;;5079382;28;20072;-43
2021/06/29 05:51:07;;;;;;;6.88;4.07;;;20.40;99.90;;;;;;5080588;28;20078;-43
2021/06/29 05:53:32;;;;;;;5.82;4.15;;;20.30;99.90;;;;;;5090513;28;20423;-45
2021/06/29 05:55:58;;;;;;;6.68;3.75;;;20.30;99.90;;;;;;5094375;28;20027;-45
2021/06/29 05:58:24;;;;;;;6.78;3.95;;;20.30;99.90;;;;;;5090026;28;20572;-44
2021/06/29 06:00:50;;;;;;;4.10;3.75;;;20.30;99.90;;;;;;5086944;28;20449;-45
2021/06/29 06:03:16;;;;;;;5.47;3.88;;;20.30;99.90;;;;;;5088583;28;20117;-45
2021/06/29 06:05:42;;;;;;;5.88;4.43;;;20.30;99.90;;;;;;5099567;28;20032;-46
2021/06/29 06:08:08;;;;;;;5.72;4.30;;;20.20;99.90;;;;;;5090722;28;20051;-44
2021/06/29 06:10:34;;;;;;;4.38;3.97;;;20.20;99.90;;;;;;5095905;28;20020;-44
2021/06/29 06:12:59;;;;;;;5.70;4.25;;;20.20;99.90;;;;;;5093913;28;20067;-44
2021/06/29 06:15:26;;;;;;;7.25;4.68;;;20.30;99.90;;;;;;5089454;28;20606;-45
2021/06/29 06:17:52;;;;;;;5.07;4.50;;;20.20;99.90;;;;;;5099513;28;20028;-45
2021/06/29 06:20:18;;;;;;;5.88;4.25;;;20.20;99.90;;;;;;5090397;28;20023;-45
2021/06/29 06:22:44;;;;;;;5.53;4.30;;;20.20;99.90;;;;;;5097351;28;20392;-45
2021/06/29 06:25:10;;;;;;;7.80;4.32;;;20.30;99.90;;;;;;5085366;28;20032;-44
2021/06/29 06:27:36;;;;;;;8.93;5.00;;;20.30;99.90;;;;;;5098229;28;20472;-45
2021/06/29 06:30:04;;;;;;;5.30;4.50;;;20.30;99.90;;;;;;5078044;28;20075;-47
2021/06/29 06:32:30;;;;;;;8.52;5.25;;;20.20;99.90;;;;;;5089941;28;20028;-45
2021/06/29 06:34:55;;;;;;;8.60;4.68;;;20.20;99.90;;;;;;5093422;28;20458;-45
2021/06/29 06:37:21;;;;;;;7.63;5.25;;;20.10;99.90;;;;;;5087171;28;20103;-47
2021/06/29 06:39:46;;;;;;;6.40;5.00;;;20.10;99.90;;;;;;5094881;28;20032;-45
2021/06/29 06:42:12;;;;;;;8.50;4.97;;;20.10;99.90;;;;;;5086755;28;20059;-45
2021/06/29 06:44:37;;;;;;;6.82;5.18;;;20.00;99.90;;;;;;5096503;28;20469;-44
2021/06/29 06:47:03;;;;;;;4.82;4.32;;;20.00;99.90;;;;;;5091422;28;20152;-44
2021/06/29 06:49:28;;;;;;;5.32;4.80;;;19.90;99.90;;;;;;5077346;28;20078;-44
2021/06/29 06:51:54;;;;;;;7.60;5.75;;;19.80;99.90;;;;;;5076751;28;20073;-45
2021/06/29 06:54:20;;;;;;;11.23;5.75;;;19.70;99.90;;;;;;5066659;28;20413;-44
2021/06/29 06:56:45;;;;;;;6.25;5.10;;;19.60;99.90;;;;;;5089878;28;20077;-44
2021/06/29 06:59:11;;;;;;;9.20;6.40;;;19.60;99.90;;;;;;5080577;28;20024;-44
2021/06/29 07:01:39;;;;;;;8.15;5.60;;;19.40;99.90;;;;;;5076920;28;20074;-45
2021/06/29 07:04:05;;;;;;;10.18;6.32;;;19.40;99.90;;;;;;5075382;28;20021;-44
2021/06/29 07:06:30;;;;;;;7.30;6.57;;;19.40;99.90;;;;;;5076017;28;20028;-44
2021/06/29 07:08:56;;;;;;;8.45;6.80;;;19.30;99.90;;;;;;5079775;28;20052;-44
2021/06/29 07:11:21;;;;;;;11.52;7.35;;;19.30;99.90;;;;;;5078777;28;20478;-45
2021/06/29 07:13:47;;;;;;;9.48;6.93;;;19.20;99.90;;;;;;5073469;28;20051;-44
2021/06/29 07:16:12;;;;;;;10.65;8.30;;;19.30;99.90;;;;;;5078793;28;20050;-44
2021/06/29 07:18:38;;;;;;;9.68;7.85;;;19.20;99.90;;;;;;5078222;28;20193;-44
2021/06/29 07:21:04;;;;;;;8.98;7.97;;;19.20;99.90;;;;;;5086469;28;20041;-44
2021/06/29 07:23:29;;;;;;;11.40;8.43;;;19.10;99.90;;;;;;5083157;28;20078;-44
2021/06/29 07:25:55;;;;;;;11.40;8.73;;;19.20;99.90;;;;;;5089059;28;20310;-44
2021/06/29 07:28:20;;;;;;;14.27;8.77;;;19.20;99.90;;;;;;5093914;28;20538;-44
2021/06/29 07:30:46;;;;;;;12.15;9.98;;;19.30;99.90;;;;;;5071620;28;20029;-44
2021/06/29 07:33:12;;;;;;;11.50;9.10;;;19.30;99.90;;;;;;5093640;28;20029;-44
2021/06/29 07:35:37;;;;;;;12.38;9.18;;;19.40;99.90;;;;;;5080004;28;20166;-44
2021/06/29 07:38:03;;;;;;;12.88;8.68;;;19.50;99.90;;;;;;5080287;28;21646;-44
2021/06/29 07:40:29;;;;;;;11.73;7.72;;;19.50;99.90;;;;;;5082475;28;20024;-47
2021/06/29 07:42:56;;;;;;;12.40;7.55;;;19.60;99.90;;;;;;5080379;28;20021;-44
2021/06/29 07:45:27;;;;;;;10.63;8.23;;;19.70;99.90;;;;;;5079914;28;20095;-45
2021/06/29 07:47:52;;;;;;;9.00;7.45;;;19.60;99.90;;;;;;5079977;28;20028;-45
2021/06/29 07:50:18;;;;;;;10.45;7.70;;;19.70;99.90;;;;;;5081724;28;20016;-44
2021/06/29 07:52:44;;;;;;;11.15;7.60;;;19.80;99.90;;;;;;5079953;28;20028;-45
2021/06/29 07:55:10;;;;;;;9.02;8.02;;;19.80;99.90;;;;;;5083564;28;20029;-46
2021/06/29 07:57:35;;;;;;;9.20;7.03;;;19.80;99.90;;;;;;5079931;28;20016;-43
2021/06/29 08:00:01;;;;;;;10.63;7.85;;;19.80;99.90;;;;;;5078805;28;20036;-44
2021/06/29 08:02:26;;;;;;;8.25;7.32;;;19.80;99.90;;;;;;5075909;28;20020;-44
2021/06/29 08:04:52;;;;;;;8.90;7.93;;;19.80;99.90;;;;;;5080862;28;20028;-46
2021/06/29 08:07:17;;;;;;;10.02;7.40;;;19.90;99.90;;;;;;5082165;28;20024;-44
2021/06/29 08:09:44;;;;;;;10.50;7.30;;;19.90;99.90;;;;;;5083074;28;20486;-43
2021/06/29 08:12:09;;;;;;;8.77;6.93;;;19.90;99.90;;;;;;5092422;28;20127;-43
2021/06/29 08:14:36;;;;;;;8.32;7.28;;;19.90;99.90;;;;;;5092781;28;20102;-44
2021/06/29 08:17:04;;;;;;;11.05;7.57;;;19.90;99.90;;;;;;5075936;28;20036;-44
2021/06/29 08:19:30;;;;;;;8.65;7.55;;;19.90;99.90;;;;;;5093647;28;20057;-44
2021/06/29 08:21:57;;;;;;;8.32;7.53;;;19.90;99.90;;;;;;5083907;28;20437;-45
2021/06/29 08:24:23;;;;;;;13.65;8.52;;;19.90;99.90;;;;;;5080437;28;20499;-43
2021/06/29 08:26:48;;;;;;;10.13;9.13;;;19.80;99.90;;;;;;5089623;28;20062;-44
2021/06/29 08:29:14;;;;;;;9.73;8.27;;;19.90;99.90;;;;;;5082767;28;20059;-46
2021/06/29 08:31:39;;;;;;;10.07;8.50;;;20.00;99.90;;;;;;5091530;28;20282;-42
2021/06/29 08:34:06;;;;;;;11.73;8.55;;;20.00;99.90;;;;;;5072656;28;20021;-42
2021/06/29 08:36:32;;;;;;;9.25;8.40;;;20.00;99.90;;;;;;5072243;28;20028;-42
2021/06/29 08:38:58;;;;;;;9.50;8.50;;;20.10;99.90;;;;;;5071395;28;20036;-42
2021/06/29 08:41:24;;;;;;;9.30;8.40;;;20.20;99.90;;;;;;5071346;28;20524;-42
2021/06/29 08:43:50;;;;;;;8.00;7.20;;;20.20;99.90;;;;;;5084459;28;20024;-42
2021/06/29 08:46:16;;;;;;;9.38;7.50;;;20.30;99.90;;;;;;5083464;28;20046;-42
2021/06/29 08:48:41;;;;;;;8.55;7.75;;;20.40;99.90;;;;;;5087219;28;20473;-42
2021/06/29 08:51:07;;;;;;;8.20;7.40;;;20.50;99.90;;;;;;5079077;28;20036;-42
2021/06/29 08:53:34;;;;;;;8.43;7.57;;;20.60;99.90;;;;;;5102242;28;20102;-42
2021/06/29 08:56:01;;;;;;;8.00;7.22;;;20.60;99.90;;;;;;5079921;28;20078;-42
2021/06/29 08:58:28;;;;;;;8.25;7.40;;;20.80;99.90;;;;;;5091796;28;20297;-42
2021/06/29 09:00:55;;;;;;;9.25;7.60;;;20.90;99.90;;;;;;5083234;28;20044;-42
2021/06/29 09:03:21;;;;;;;9.25;7.82;;;21.00;99.90;;;;;;5080123;28;20011;-42
2021/06/29 09:05:49;;;;;;;8.15;7.35;;;21.00;99.90;;;;;;5090217;28;20427;-42
2021/06/29 09:08:17;;;;;;;9.73;8.05;;;21.00;99.90;;;;;;5081625;28;20031;-42
2021/06/29 09:11:03;;;;;;;9.55;7.45;;;21.00;99.90;;;;;;5093145;28;20156;-42
2021/06/29 09:13:30;;;;;;;7.90;7.07;;;21.00;99.90;;;;;;5070515;28;20600;-42
2021/06/29 09:15:56;;;;;;;11.95;7.75;;;21.00;99.90;;;;;;5082922;28;20030;-43
2021/06/29 09:18:25;;;;;;;7.97;7.00;;;21.00;99.90;;;;;;5078107;28;20142;-41
2021/06/29 09:21:05;;;;;;;8.43;7.45;;;20.90;99.90;;;;;;5087993;28;20609;-41
2021/06/29 09:23:32;;;;;;;;;;;20.90;99.90;;;;;;5081606;28;20404;-42
2021/06/29 09:26:03;;;;;;;8.13;6.15;;;20.70;99.90;;;;;;5082659;28;20138;-42
2021/06/29 09:28:38;;;;;;;7.90;7.10;;;20.60;99.90;;;;;;5085283;28;20523;-42
2021/06/29 09:31:13;;;;;;;10.20;7.78;;;20.70;99.90;;;;;;5073371;28;20024;-41
2021/06/29 09:33:57;;;;;;;9.25;7.30;;;20.80;99.90;;;;;;5070692;28;20386;-42
2021/06/29 09:36:24;;;;;;;9.73;7.25;;;20.80;99.90;;;;;;5077503;28;20024;-42
2021/06/29 09:38:52;;;;;;;8.18;7.38;;;20.90;99.90;;;;;;5069303;28;20051;-42
2021/06/29 09:41:32;;;;;;;8.57;6.88;;;21.00;99.90;;;;;;5078023;28;20092;-42
2021/06/29 09:44:20;;;;;;;7.97;7.20;;;21.00;99.90;;;;;;5087204;28;20024;-42
2021/06/29 09:46:45;;;;;;;8.50;7.70;;;21.10;99.90;;;;;;5082957;28;20378;-41
2021/06/29 09:49:16;;;;;;;8.40;7.10;;;21.20;99.90;;;;;;5080702;28;20093;-42
2021/06/29 09:51:45;;;;;;;8.20;7.28;;;21.10;99.90;;;;;;5076903;28;20028;-42
2021/06/29 09:54:13;;;;;;;9.23;8.30;;;21.20;99.90;;;;;;5082922;28;20025;-43
2021/06/29 09:56:42;;;;;;;8.45;7.65;;;21.20;99.90;;;;;;5076785;28;20009;-42
2021/06/29 09:59:13;;;;;;;9.73;8.15;;;21.30;99.90;;;;;;5081012;28;20024;-42
2021/06/29 10:01:38;;;;;;;8.50;7.70;;;21.40;99.90;;;;;;5072925;28;20240;-43
2021/06/29 10:04:04;;;;;;;11.38;9.38;;;21.40;99.90;;;;;;5082287;28;20025;-42
2021/06/29 10:06:32;;;;;;;8.13;7.30;;;21.30;99.90;;;;;;5077299;28;20093;-42
2021/06/29 10:09:06;;;;;;;11.30;8.63;;;21.30;99.90;;;;;;5076990;28;20166;-42
2021/06/29 10:11:44;;;;;;;11.05;8.43;;;21.30;99.90;;;;;;5078044;28;20390;-42
2021/06/29 10:14:15;;;;;;;13.52;8.50;;;21.20;99.90;;;;;;5081604;28;20028;-42
2021/06/29 10:16:44;;;;;;;13.32;9.13;;;21.30;99.90;;;;;;5076746;28;20029;-42
2021/06/29 10:21:48;;;;;;;11.57;9.48;;;21.30;99.90;;;;;;5072856;28;20024;-42
2021/06/29 10:24:16;;;;;;;10.30;9.13;;;21.40;99.90;;;;;;5086097;28;20020;-42
2021/06/29 10:26:43;;;;;;;9.65;8.65;;;21.40;99.90;;;;;;5097793;28;20020;-42
2021/06/29 10:29:12;;;;;;;12.30;9.52;;;21.30;99.90;;;;;;5089797;28;20107;-42
2021/06/29 10:31:43;;;;;;;15.15;9.82;;;21.20;99.90;;;;;;5095906;28;20023;-42
2021/06/29 10:34:10;;;;;;;10.30;8.90;;;21.20;99.90;;;;;;5094380;28;20013;-43
2021/06/29 10:36:39;;;;;;;12.88;9.52;;;21.20;99.90;;;;;;5089601;28;20439;-42
2021/06/29 10:39:07;;;;;;;11.98;9.85;;;21.00;99.90;;;;;;5085014;28;20015;-42
2021/06/29 10:41:35;;;;;;;9.90;8.07;;;21.10;99.90;;;;;;5098404;28;20031;-42
2021/06/29 10:44:02;;;;;;;10.98;9.88;;;21.20;99.90;;;;;;5103632;28;20102;-42
2021/06/29 10:46:27;;;;;;;50.95;40.08;;;21.30;99.90;;;;;;5092611;28;20012;-42
2021/06/29 10:48:56;;;;;;;41.15;31.13;;;21.40;99.90;;;;;;5110386;28;20012;-42
2021/06/29 10:51:54;;;;;;;18.92;14.27;;;21.50;99.90;;;;;;5102097;28;20030;-42
2021/06/29 10:54:59;;;;;;;17.83;10.25;;;21.60;99.90;;;;;;5059244;27;20039;-42
2021/06/29 10:57:36;;;;;;;10.63;9.52;;;21.60;99.90;;;;;;5080024;28;20038;-42
2021/06/29 11:00:21;;;;;;;10.25;9.23;;;21.70;99.90;;;;;;5083209;28;20494;-43
2021/06/29 11:03:01;;;;;;;9.60;8.30;;;21.80;99.90;;;;;;5081440;28;20040;-42
2021/06/29 11:05:31;;;;;;;8.82;7.85;;;22.00;99.90;;;;;;5079197;28;20028;-42
2021/06/29 11:08:27;;;;;;;10.77;7.60;;;22.10;99.90;;;;;;5076596;28;20029;-42
2021/06/29 11:10:53;;;;;;;17.20;8.60;;;22.20;99.90;;;;;;5076356;28;20031;-42
2021/06/29 11:13:43;;;;;;;8.38;7.57;;;22.20;99.90;;;;;;5081553;28;20047;-42
2021/06/29 11:16:09;;;;;;;10.40;7.90;;;22.30;99.90;;;;;;5083629;28;20025;-42
2021/06/29 11:18:35;;;;;;;12.25;7.72;;;22.40;99.90;;;;;;5085475;28;20278;-42
2021/06/29 11:21:04;;;;;;;12.68;7.88;;;22.40;99.90;;;;;;5097967;28;20089;-42
2021/06/29 11:23:32;;;;;;;8.48;6.85;;;22.30;99.90;;;;;;5091269;28;20021;-42
2021/06/29 11:26:00;;;;;;;12.65;9.65;;;22.30;99.90;;;;;;5093590;28;20020;-42
2021/06/29 11:28:34;;;;;;;16.55;8.77;;;22.40;99.90;;;;;;5097740;27;20105;-43
2021/06/29 11:31:27;;;;;;;13.43;6.38;;;22.30;99.90;;;;;;5091024;28;20059;-42
2021/06/29 11:33:57;;;;;;;11.93;7.35;;;22.50;99.90;;;;;;5092447;28;20063;-43
2021/06/29 11:38:59;;;;;;;9.30;7.32;;;22.80;99.90;;;;;;5092968;28;20030;-42
2021/06/29 11:41:25;;;;;;;9.05;6.47;;;23.00;99.90;;;;;;5096018;28;20046;-42
2021/06/29 11:43:55;;;;;;;7.07;6.38;;;23.10;99.90;;;;;;5092925;28;20493;-42
2021/06/29 11:46:48;;;;;;;6.38;5.43;;;23.40;99.90;;;;;;5102934;28;20015;-42
2021/06/29 11:49:15;;;;;;;9.23;6.18;;;23.70;99.90;;;;;;5107721;27;20027;-42
2021/06/29 11:51:58;;;;;;;10.32;5.85;;;23.90;99.90;;;;;;5105077;28;20023;-43
2021/06/29 11:54:32;;;;;;;5.90;5.20;;;24.00;99.90;;;;;;5090635;28;20027;-42
2021/06/29 11:57:13;;;;;;;10.02;5.40;;;24.00;99.90;;;;;;5107464;28;20016;-42
2021/06/29 11:59:39;;;;;;;5.53;4.65;;;23.90;99.90;;;;;;5096232;28;20016;-41
2021/06/29 12:02:10;;;;;;;10.15;5.30;;;24.00;99.90;;;;;;5094255;28;20037;-41
2021/06/29 12:04:36;;;;;;;8.15;5.40;;;24.40;99.90;;;;;;5100630;28;20019;-42
2021/06/29 12:07:06;;;;;;;7.30;4.93;;;24.50;99.90;;;;;;5099901;28;20024;-43
2021/06/29 12:09:33;;;;;;;5.33;4.77;;;24.50;99.90;;;;;;5101175;28;20078;-42
2021/06/29 12:12:17;;;;;;;7.32;5.00;;;24.50;99.90;;;;;;5092911;28;20024;-42
2021/06/29 12:14:43;;;;;;;7.82;4.95;;;25.00;99.90;;;;;;5104421;28;20016;-42
2021/06/29 12:17:09;;;;;;;6.53;4.57;;;25.20;99.90;;;;;;5099814;28;20095;-41
2021/06/29 12:19:35;;;;;;;8.43;6.22;;;25.70;99.90;;;;;;5084296;28;20134;-43
2021/06/29 12:22:00;;;;;;;8.40;6.10;;;26.10;99.90;;;;;;5076495;28;20040;-42
2021/06/29 12:24:26;;;;;;;9.05;5.72;;;26.10;99.90;;;;;;5078134;28;20040;-42
2021/06/29 12:26:51;;;;;;;8.43;5.80;;;26.30;99.90;;;;;;5079729;28;20032;-42
2021/06/29 12:29:30;;;;;;;8.52;6.63;;;26.00;99.90;;;;;;5071669;28;20024;-42
2021/06/29 12:31:56;;;;;;;8.05;6.28;;;26.00;99.90;;;;;;5070354;28;20619;-42
2021/06/29 12:34:23;;;;;;;8.20;7.40;;;25.60;99.90;;;;;;5079764;28;20041;-42
2021/06/29 12:36:50;;;;;;;8.25;6.45;;;25.30;99.90;;;;;;5071992;28;20029;-43
2021/06/29 12:39:15;;;;;;;8.80;6.75;;;25.30;99.90;;;;;;5081508;28;20037;-43
2021/06/29 12:41:42;;;;;;;7.80;6.95;;;25.30;99.90;;;;;;5077344;28;20082;-43
2021/06/29 12:44:11;;;;;;;10.95;7.30;;;25.40;99.90;;;;;;5078076;28;20017;-43
2021/06/29 12:46:42;;;;;;;8.27;7.43;;;25.50;99.90;;;;;;5078029;28;20025;-43
2021/06/29 12:49:17;;;;;;;9.57;6.60;;;25.30;99.90;;;;;;5079454;28;20040;-43
2021/06/29 12:52:22;;;;;;;9.77;7.95;;;25.10;99.90;;;;;;5079682;28;20020;-43
2021/06/29 12:54:52;;;;;;;8.55;7.15;;;25.00;99.90;;;;;;5038692;28;20516;-42
2021/06/29 12:57:17;;;;;;;10.25;6.65;;;24.80;99.90;;;;;;5081094;28;20099;-43